Time;durP1;ratioP1;P1;durP2;ratioP2;P2;SDS_P1;SDS_P2;PMS_P1;PMS_P2;Temp;Humidity;BMP_temperature;BMP_pressure;BME280_temperature;BME280_humidity;BME280_pressure;Samples;Min_cycle;Max_cycle;Signal;HPM_P1;HPM_P2
2022/06/01 00:02:10;;;;;;;10.38;7.88;;;9.50;99.90;;;;;;5050427;28;20474;-83
2022/06/01 00:04:36;;;;;;;13.60;8.32;;;9.50;99.90;;;;;;5051078;28;20055;-84
2022/06/01 00:07:02;;;;;;;11.10;9.15;;;9.50;99.90;;;;;;5051079;28;20484;-84
2022/06/01 00:09:28;;;;;;;10.35;7.93;;;9.50;99.90;;;;;;5051245;28;20037;-84
2022/06/01 00:11:54;;;;;;;12.07;8.13;;;9.50;99.90;;;;;;5051572;28;20495;-84
2022/06/01 00:14:19;;;;;;;10.30;8.48;;;9.50;99.90;;;;;;5050711;28;20048;-84
2022/06/01 00:16:45;;;;;;;10.85;8.73;;;9.60;99.90;;;;;;5050894;28;20095;-84
2022/06/01 00:19:12;;;;;;;10.23;8.65;;;9.60;99.90;;;;;;5067856;28;20058;-83
2022/06/01 00:22:11;;;;;;;10.55;8.63;;;9.70;99.90;;;;;;5034837;28;20048;-84
2022/06/01 00:24:24;;;;;;;10.27;8.55;;;9.70;99.90;;;;;;5049670;28;20079;-84
2022/06/01 00:26:50;;;;;;;11.95;8.38;;;9.70;99.90;;;;;;5051224;28;20075;-84
2022/06/01 00:29:17;;;;;;;12.95;9.15;;;9.70;99.90;;;;;;5050491;28;20395;-84
2022/06/01 00:31:43;;;;;;;11.70;8.05;;;9.80;99.90;;;;;;5034860;28;20094;-84
2022/06/01 00:34:08;;;;;;;14.25;9.77;;;9.70;99.90;;;;;;5049373;28;20442;-84
2022/06/01 00:36:34;;;;;;;10.43;9.32;;;9.80;99.90;;;;;;5034255;28;20080;-84
2022/06/01 00:39:00;;;;;;;11.40;8.90;;;9.80;99.90;;;;;;5034063;28;20542;-84
2022/06/01 00:41:29;;;;;;;12.80;9.18;;;9.80;99.90;;;;;;5034248;28;20036;-84
2022/06/01 00:43:55;;;;;;;13.48;10.00;;;9.80;99.90;;;;;;5033232;28;20048;-84
2022/06/01 00:46:21;;;;;;;11.98;8.90;;;9.80;99.90;;;;;;5033776;28;20041;-84
2022/06/01 00:48:51;;;;;;;11.85;9.77;;;9.80;99.90;;;;;;5033697;28;20051;-84
2022/06/01 00:51:26;;;;;;;11.10;9.23;;;9.90;99.90;;;;;;5049532;28;20835;-84
2022/06/01 00:53:54;;;;;;;12.75;8.85;;;9.90;99.90;;;;;;5050410;28;20132;-84
2022/06/01 00:56:27;;;;;;;14.18;9.50;;;9.90;99.90;;;;;;5033694;28;20487;-84
2022/06/01 00:58:56;;;;;;;12.75;8.35;;;9.80;99.90;;;;;;5032778;28;20049;-84
2022/06/01 01:01:22;;;;;;;8.55;7.35;;;9.80;99.90;;;;;;5050071;28;20114;-84
2022/06/01 01:03:52;;;;;;;9.40;8.25;;;9.80;99.90;;;;;;5049383;28;20060;-84
2022/06/01 01:06:22;;;;;;;10.32;7.60;;;9.80;99.90;;;;;;5049492;28;20088;-84
2022/06/01 01:08:48;;;;;;;12.85;8.32;;;9.80;99.90;;;;;;5033560;28;20051;-84
2022/06/01 01:11:15;;;;;;;10.95;9.40;;;9.80;99.90;;;;;;5049886;28;20040;-84
2022/06/01 01:13:45;;;;;;;10.23;8.65;;;9.80;99.90;;;;;;5032866;28;20040;-84
2022/06/01 01:16:14;;;;;;;13.68;9.02;;;9.80;99.90;;;;;;5049870;28;20135;-84
2022/06/01 01:18:43;;;;;;;13.93;8.73;;;9.80;99.90;;;;;;5048352;28;20453;-84
2022/06/01 01:21:16;;;;;;;10.18;9.00;;;9.80;99.90;;;;;;5033431;28;20480;-84
2022/06/01 01:23:58;;;;;;;10.70;8.30;;;9.80;99.90;;;;;;5033888;28;20077;-85
2022/06/01 01:26:25;;;;;;;12.15;9.43;;;9.80;99.90;;;;;;5032232;28;20048;-84
2022/06/01 01:28:52;;;;;;;12.63;9.68;;;9.80;99.90;;;;;;5033565;28;20036;-84
2022/06/01 01:31:21;;;;;;;10.57;9.23;;;9.80;99.90;;;;;;5049028;28;20056;-85
2022/06/01 01:33:53;;;;;;;12.25;8.45;;;9.90;99.90;;;;;;5032243;28;20044;-84
2022/06/01 01:36:25;;;;;;;10.98;8.88;;;9.90;99.90;;;;;;5049260;28;20452;-84
2022/06/01 01:38:53;;;;;;;12.90;9.75;;;9.90;99.90;;;;;;5032891;28;20048;-84
2022/06/01 01:41:31;;;;;;;11.60;9.48;;;9.90;99.90;;;;;;5049039;28;20048;-83
2022/06/01 01:44:01;;;;;;;13.02;9.98;;;9.90;99.90;;;;;;5049710;28;20044;-84
2022/06/01 01:46:29;;;;;;;12.77;9.63;;;9.90;99.90;;;;;;5032814;28;20515;-84
2022/06/01 01:48:55;;;;;;;14.60;11.43;;;10.00;99.90;;;;;;5032382;28;20040;-84
2022/06/01 01:51:24;;;;;;;12.90;10.68;;;10.00;99.90;;;;;;5032599;28;20055;-85
2022/06/01 01:53:51;;;;;;;15.40;11.88;;;10.00;99.90;;;;;;5031844;28;20045;-84
2022/06/01 01:56:40;;;;;;;18.30;11.68;;;10.00;99.90;;;;;;5032691;28;20568;-84
2022/06/01 01:59:22;;;;;;;15.10;11.82;;;10.00;99.90;;;;;;5048575;28;20055;-84
2022/06/01 02:02:21;;;;;;;14.88;11.73;;;10.00;99.90;;;;;;5048821;28;20048;-84
2022/06/01 02:07:52;;;;;;;16.55;12.10;;;10.00;99.90;;;;;;5048416;28;20044;-84
2022/06/01 02:13:03;;;;;;;15.32;11.63;;;10.00;99.90;;;;;;5048859;28;20127;-85
2022/06/01 02:15:36;;;;;;;12.65;11.25;;;10.00;99.90;;;;;;5032640;28;20049;-84
2022/06/01 02:18:08;;;;;;;14.57;11.55;;;10.00;99.90;;;;;;5031440;28;20784;-84
2022/06/01 02:20:41;;;;;;;15.57;12.57;;;9.90;99.90;;;;;;5049791;28;20665;-85
2022/06/01 02:23:13;;;;;;;17.55;12.98;;;9.90;99.90;;;;;;5048590;28;20116;-84
2022/06/01 02:25:42;;;;;;;13.70;12.20;;;9.90;99.90;;;;;;5049349;28;20127;-84
2022/06/01 02:28:09;;;;;;;16.15;12.85;;;9.90;99.90;;;;;;5048750;28;20048;-84
2022/06/01 02:30:39;;;;;;;15.50;12.63;;;9.90;99.90;;;;;;5048554;28;20045;-84
2022/06/01 02:33:09;;;;;;;14.40;12.52;;;9.90;99.90;;;;;;5047957;28;20059;-84
2022/06/01 02:35:38;;;;;;;16.30;12.73;;;9.80;99.90;;;;;;5049147;28;20076;-85
2022/06/01 02:38:10;;;;;;;15.48;13.73;;;9.80;99.90;;;;;;5031709;28;20488;-85
2022/06/01 02:40:37;;;;;;;18.63;14.80;;;9.80;99.90;;;;;;5049346;28;20052;-85
2022/06/01 02:43:03;;;;;;;18.33;14.38;;;9.80;99.90;;;;;;5048229;28;20044;-84
2022/06/01 02:45:29;;;;;;;19.42;14.63;;;9.80;99.90;;;;;;5049562;28;20047;-85
2022/06/01 02:47:59;;;;;;;18.08;15.15;;;9.80;99.90;;;;;;5052992;28;20492;-85
2022/06/01 02:50:29;;;;;;;21.00;15.90;;;9.80;99.90;;;;;;5035498;28;20045;-85
2022/06/01 02:52:55;;;;;;;24.95;16.95;;;9.90;99.90;;;;;;5053683;28;20048;-85
2022/06/01 02:55:22;;;;;;;21.30;15.75;;;9.90;99.90;;;;;;5052657;28;20059;-85
2022/06/01 02:57:50;;;;;;;18.42;13.65;;;10.00;99.90;;;;;;5052520;28;20508;-85
2022/06/01 03:00:22;;;;;;;17.90;14.50;;;10.00;99.90;;;;;;5052770;28;20041;-85
2022/06/01 03:02:52;;;;;;;17.88;15.52;;;10.10;99.90;;;;;;5036176;28;20440;-85
2022/06/01 03:05:20;;;;;;;15.82;13.52;;;10.10;99.90;;;;;;5035267;28;20048;-84
2022/06/01 03:07:46;;;;;;;23.60;16.48;;;10.10;99.90;;;;;;5036694;28;20044;-85
2022/06/01 03:10:12;;;;;;;19.02;15.48;;;10.10;99.90;;;;;;5064797;28;20075;-85
2022/06/01 03:12:39;;;;;;;24.88;17.02;;;10.10;99.90;;;;;;5035840;28;20206;-85
2022/06/01 03:15:07;;;;;;;19.80;15.23;;;10.20;99.90;;;;;;5052858;28;20129;-85
2022/06/01 03:17:33;;;;;;;19.45;16.23;;;10.20;99.90;;;;;;5052866;28;20112;-84
2022/06/01 03:20:00;;;;;;;20.67;16.00;;;10.20;99.90;;;;;;5051372;28;20054;-85
2022/06/01 03:22:26;;;;;;;21.80;17.30;;;10.20;99.90;;;;;;5036115;28;20047;-85
2022/06/01 03:24:52;;;;;;;19.65;15.80;;;10.20;99.90;;;;;;5052917;28;20049;-84
2022/06/01 03:27:18;;;;;;;23.15;17.00;;;10.20;99.90;;;;;;5035447;28;20040;-84
2022/06/01 03:29:45;;;;;;;24.38;16.70;;;10.20;99.90;;;;;;5035836;28;20403;-84
2022/06/01 03:32:11;;;;;;;21.15;16.33;;;10.20;99.90;;;;;;5035066;28;20044;-85
2022/06/01 03:34:37;;;;;;;21.77;16.95;;;10.20;99.90;;;;;;5034452;28;20041;-85
2022/06/01 03:37:03;;;;;;;21.83;16.58;;;10.20;99.90;;;;;;5051542;28;20052;-85
2022/06/01 03:39:29;;;;;;;21.08;15.98;;;10.20;99.90;;;;;;5051702;28;20056;-83
2022/06/01 03:41:55;;;;;;;20.92;15.15;;;10.20;99.90;;;;;;5035893;28;20044;-85
2022/06/01 03:47:09;;;;;;;19.33;14.80;;;10.20;99.90;;;;;;5050648;28;20048;-84
2022/06/01 03:49:35;;;;;;;17.52;14.68;;;10.20;99.90;;;;;;5043113;28;20109;-85
2022/06/01 03:52:02;;;;;;;18.00;15.27;;;10.10;99.90;;;;;;5051583;28;20037;-85
2022/06/01 03:54:28;;;;;;;17.88;15.85;;;10.10;99.90;;;;;;5050365;28;20468;-84
2022/06/01 03:56:54;;;;;;;18.90;15.95;;;10.10;99.90;;;;;;5051930;28;20063;-85
2022/06/01 03:59:20;;;;;;;20.83;16.92;;;10.10;99.90;;;;;;5050417;28;20052;-85
2022/06/01 04:01:46;;;;;;;19.02;16.98;;;10.10;99.90;;;;;;5051744;28;20048;-84
2022/06/01 04:04:12;;;;;;;20.15;16.00;;;10.10;99.90;;;;;;5050669;28;20044;-84
2022/06/01 04:06:37;;;;;;;20.50;17.20;;;10.20;99.90;;;;;;5053382;28;20033;-85
2022/06/01 04:09:03;;;;;;;17.80;15.90;;;10.20;99.90;;;;;;5050607;28;20055;-84
2022/06/01 04:11:29;;;;;;;21.83;17.02;;;10.20;99.90;;;;;;5068204;28;20044;-84
2022/06/01 04:13:54;;;;;;;22.95;17.75;;;10.30;99.90;;;;;;5051821;28;20055;-85
2022/06/01 04:16:20;;;;;;;20.67;18.27;;;10.30;99.90;;;;;;5050787;28;20048;-84
2022/06/01 04:18:46;;;;;;;23.70;17.67;;;10.30;99.90;;;;;;5050460;28;20071;-84
2022/06/01 04:21:14;;;;;;;21.95;16.55;;;10.30;99.90;;;;;;5050861;28;20040;-84
2022/06/01 04:23:40;;;;;;;19.58;17.10;;;10.40;99.90;;;;;;5052887;28;20821;-85
2022/06/01 04:26:06;;;;;;;20.88;17.02;;;10.40;99.90;;;;;;5034651;28;20045;-85
2022/06/01 04:28:31;;;;;;;19.17;15.85;;;10.40;99.90;;;;;;5035987;28;20055;-85
2022/06/01 04:30:58;;;;;;;19.23;16.60;;;10.50;99.90;;;;;;5051641;28;20048;-83
2022/06/01 04:33:26;;;;;;;20.50;18.17;;;10.50;99.90;;;;;;5049798;28;20079;-83
2022/06/01 04:35:52;;;;;;;18.90;16.17;;;10.60;99.90;;;;;;5049983;28;20602;-84
2022/06/01 04:38:18;;;;;;;18.85;16.38;;;10.70;99.90;;;;;;5033800;28;20075;-84
2022/06/01 04:40:47;;;;;;;18.58;15.93;;;10.70;99.90;;;;;;5050913;28;20040;-84
2022/06/01 04:43:16;;;;;;;22.23;15.73;;;10.80;99.90;;;;;;5049691;28;20106;-84
2022/06/01 04:45:41;;;;;;;19.02;16.30;;;10.80;99.90;;;;;;5034146;28;20098;-84
2022/06/01 04:48:07;;;;;;;20.73;16.83;;;10.90;99.90;;;;;;5032952;28;20048;-84
2022/06/01 04:50:33;;;;;;;22.63;17.58;;;10.90;99.90;;;;;;5033579;28;20047;-83
2022/06/01 04:53:00;;;;;;;19.65;17.08;;;11.00;99.90;;;;;;5050318;28;20087;-84
2022/06/01 04:55:26;;;;;;;23.98;16.77;;;11.10;99.90;;;;;;5050446;28;20060;-84
2022/06/01 04:57:52;;;;;;;20.92;16.83;;;11.10;99.90;;;;;;5050927;28;20078;-83
2022/06/01 05:00:18;;;;;;;22.35;17.73;;;11.20;99.90;;;;;;5051550;28;20075;-84
2022/06/01 05:02:44;;;;;;;20.60;17.55;;;11.20;99.90;;;;;;5050099;28;20048;-83
2022/06/01 05:05:10;;;;;;;20.73;17.70;;;11.20;99.90;;;;;;5032185;28;20044;-84
2022/06/01 05:07:35;;;;;;;23.35;17.40;;;11.30;99.90;;;;;;5050901;28;20476;-83
2022/06/01 05:10:01;;;;;;;22.38;19.00;;;11.30;99.90;;;;;;5060127;28;20056;-83
2022/06/01 05:12:27;;;;;;;23.20;18.75;;;11.30;99.90;;;;;;5033812;28;20048;-83
2022/06/01 05:14:53;;;;;;;23.50;19.25;;;11.40;99.90;;;;;;5050895;28;20045;-84
2022/06/01 05:17:19;;;;;;;28.30;20.17;;;11.40;99.90;;;;;;5072454;28;20083;-83
2022/06/01 05:19:45;;;;;;;24.33;19.45;;;11.50;99.90;;;;;;5082954;28;20048;-83
2022/06/01 05:22:11;;;;;;;23.67;20.92;;;11.50;99.90;;;;;;5067131;28;20520;-84
2022/06/01 05:24:36;;;;;;;23.75;21.02;;;11.60;99.90;;;;;;5068061;28;20126;-85
2022/06/01 05:27:02;;;;;;;26.20;21.30;;;11.60;99.90;;;;;;5068925;28;20064;-85
2022/06/01 05:29:28;;;;;;;23.45;20.10;;;11.60;99.90;;;;;;5068366;28;20048;-84
2022/06/01 05:31:54;;;;;;;23.75;20.77;;;11.50;99.90;;;;;;5068464;28;20194;-84
2022/06/01 05:34:21;;;;;;;26.15;21.10;;;11.50;99.90;;;;;;5068221;28;20032;-85
2022/06/01 05:36:47;;;;;;;26.75;22.58;;;11.50;99.90;;;;;;5053725;28;20567;-85
2022/06/01 05:39:12;;;;;;;25.17;21.48;;;11.50;99.90;;;;;;5052037;28;20051;-85
2022/06/01 05:41:39;;;;;;;23.92;21.23;;;11.60;99.90;;;;;;5069657;28;20080;-85
2022/06/01 05:44:06;;;;;;;27.48;20.67;;;11.50;99.90;;;;;;5052710;28;20134;-85
2022/06/01 05:46:35;;;;;;;23.00;19.83;;;11.60;99.90;;;;;;5068519;28;20122;-85
2022/06/01 05:49:02;;;;;;;22.92;18.98;;;11.60;99.90;;;;;;5062089;28;20067;-85
2022/06/01 05:51:28;;;;;;;24.52;19.10;;;11.80;99.90;;;;;;5049509;28;20140;-85
2022/06/01 05:53:54;;;;;;;23.33;19.35;;;11.80;99.90;;;;;;5031857;28;20147;-85
2022/06/01 05:56:20;;;;;;;24.75;19.23;;;11.90;99.90;;;;;;5048893;28;20170;-85
2022/06/01 05:58:47;;;;;;;23.25;19.38;;;11.90;99.90;;;;;;5049243;28;20511;-85
2022/06/01 06:01:16;;;;;;;21.08;18.88;;;12.00;99.90;;;;;;5031288;28;20048;-85
2022/06/01 06:03:43;;;;;;;32.30;17.45;;;12.00;99.90;;;;;;5032205;28;20041;-85
2022/06/01 06:06:15;;;;;;;20.27;18.17;;;12.10;99.90;;;;;;5032585;28;20639;-85
2022/06/01 06:08:46;;;;;;;21.67;17.67;;;12.10;99.90;;;;;;5049837;28;20122;-83
2022/06/01 06:11:13;;;;;;;20.98;18.05;;;12.10;99.90;;;;;;5041789;28;20063;-84
2022/06/01 06:13:39;;;;;;;19.05;17.08;;;12.10;99.90;;;;;;5068722;28;20403;-84
2022/06/01 06:16:06;;;;;;;24.02;17.90;;;12.10;99.90;;;;;;5069039;28;20032;-84
2022/06/01 06:18:31;;;;;;;18.67;16.75;;;12.10;99.90;;;;;;5051311;28;20055;-84
2022/06/01 06:20:58;;;;;;;22.55;17.90;;;12.20;99.90;;;;;;5070188;28;20047;-84
2022/06/01 06:23:23;;;;;;;22.77;16.80;;;12.20;99.90;;;;;;5075138;28;20070;-84
2022/06/01 06:25:49;;;;;;;19.05;16.85;;;12.30;99.90;;;;;;5076103;28;20467;-85
2022/06/01 06:28:15;;;;;;;20.40;17.23;;;12.40;99.90;;;;;;5057659;28;20139;-85
2022/06/01 06:30:41;;;;;;;23.70;17.83;;;12.60;99.90;;;;;;5080680;28;20054;-85
2022/06/01 06:33:07;;;;;;;24.27;18.77;;;12.70;99.90;;;;;;5057784;28;20524;-86
2022/06/01 06:35:34;;;;;;;20.92;16.88;;;12.90;99.90;;;;;;5074840;28;20040;-84
2022/06/01 06:38:01;;;;;;;20.00;16.52;;;13.00;99.90;;;;;;5072863;28;21836;-84
2022/06/01 06:40:27;;;;;;;21.67;16.30;;;13.20;99.90;;;;;;5055757;28;20040;-84
2022/06/01 06:42:53;;;;;;;22.35;15.63;;;13.40;99.90;;;;;;5054731;28;20044;-86
2022/06/01 06:45:20;;;;;;;40.28;15.80;;;13.50;99.90;;;;;;5055403;28;20163;-85
2022/06/01 06:47:46;;;;;;;17.35;14.82;;;13.70;99.90;;;;;;5057883;28;20041;-86
2022/06/01 06:50:14;;;;;;;15.70;12.63;;;13.90;99.90;;;;;;5054327;28;20368;-86
2022/06/01 06:52:40;;;;;;;18.38;12.35;;;13.90;99.90;;;;;;5055461;28;20118;-86
2022/06/01 06:55:07;;;;;;;17.45;11.38;;;13.90;99.90;;;;;;5038064;28;20446;-86
2022/06/01 06:57:33;;;;;;;12.82;10.95;;;13.80;99.90;;;;;;5038294;28;20048;-86
2022/06/01 07:00:00;;;;;;;9.57;7.45;;;13.80;99.90;;;;;;5055492;28;20045;-85
2022/06/01 07:02:25;;;;;;;4.72;2.83;;;13.70;99.90;;;;;;5039198;28;20446;-86
2022/06/01 07:04:51;;;;;;;5.72;2.72;;;13.40;99.90;;;;;;5036987;28;20763;-84
2022/06/01 07:07:17;;;;;;;6.97;3.20;;;13.20;99.90;;;;;;5038689;28;20067;-84
2022/06/01 07:09:43;;;;;;;13.27;4.30;;;13.00;99.90;;;;;;5055238;28;20052;-87
2022/06/01 07:12:10;;;;;;;14.10;5.20;;;12.70;99.90;;;;;;5071886;28;20051;-90
2022/06/01 07:14:36;;;;;;;9.85;5.43;;;12.60;99.90;;;;;;5041044;28;20050;-91
2022/06/01 07:17:02;;;;;;;8.57;5.60;;;12.40;99.90;;;;;;5039130;28;20102;-90
2022/06/01 07:19:28;;;;;;;8.77;6.40;;;12.30;99.90;;;;;;5039534;28;20088;-91
2022/06/01 07:21:55;;;;;;;10.95;6.47;;;12.10;99.90;;;;;;5041731;28;20051;-91
2022/06/01 07:24:21;;;;;;;9.63;6.25;;;12.00;99.90;;;;;;5040321;28;20147;-93
2022/06/01 07:26:48;;;;;;;9.93;6.68;;;12.00;99.90;;;;;;5040883;28;20408;-91
2022/06/01 07:29:18;;;;;;;13.23;7.22;;;12.00;99.90;;;;;;5042410;28;20091;-94
2022/06/01 07:31:46;;;;;;;9.43;6.93;;;11.90;99.90;;;;;;5040335;28;20051;-95
2022/06/01 07:34:12;;;;;;;14.52;7.50;;;11.90;99.90;;;;;;5035939;28;20048;-92
2022/06/01 07:36:39;;;;;;;10.77;7.50;;;12.00;99.90;;;;;;5039400;28;20056;-92
2022/06/01 07:44:28;;;;;;;13.30;7.95;;;12.20;99.90;;;;;;5052877;28;20052;-89
2022/06/01 07:46:54;;;;;;;10.63;8.02;;;12.40;99.90;;;;;;5035093;28;20311;-90
2022/06/01 07:49:21;;;;;;;12.32;6.93;;;12.50;99.90;;;;;;5045861;28;20436;-89
2022/06/01 07:51:47;;;;;;;10.85;8.38;;;12.60;99.90;;;;;;5057538;28;20480;-88
2022/06/01 07:54:13;;;;;;;13.45;8.85;;;12.80;99.90;;;;;;5054523;28;20059;-89
2022/06/01 07:56:41;;;;;;;12.70;9.43;;;13.00;99.90;;;;;;5039602;28;20131;-88
2022/06/01 07:59:08;;;;;;;9.60;7.95;;;13.20;99.90;;;;;;5054944;28;20043;-89
2022/06/01 08:01:34;;;;;;;10.57;8.18;;;13.30;99.90;;;;;;5055317;28;20050;-89
2022/06/01 08:04:03;;;;;;;16.15;8.38;;;13.50;99.90;;;;;;5055394;28;20414;-89
2022/06/01 08:06:30;;;;;;;10.75;8.43;;;13.60;99.90;;;;;;5056584;28;20063;-88
2022/06/01 08:08:56;;;;;;;11.02;8.23;;;13.70;99.90;;;;;;5055284;28;20467;-88
2022/06/01 08:14:18;;;;;;;13.35;8.63;;;14.40;99.90;;;;;;5070492;28;20131;-88
2022/06/01 08:16:44;;;;;;;11.13;8.65;;;14.80;99.90;;;;;;5055646;28;20044;-89
2022/06/01 08:19:11;;;;;;;10.70;8.43;;;15.10;99.90;;;;;;5053618;28;20051;-89
2022/06/01 08:21:38;;;;;;;10.50;7.85;;;15.30;99.90;;;;;;5056917;28;20044;-89
2022/06/01 08:24:05;;;;;;;9.60;7.68;;;15.50;99.90;;;;;;5056496;28;20083;-88
2022/06/01 08:26:31;;;;;;;12.50;8.88;;;15.60;99.90;;;;;;5073711;28;20048;-88
2022/06/01 08:28:57;;;;;;;9.25;7.65;;;15.80;99.90;;;;;;5055809;28;20036;-88
2022/06/01 08:31:27;;;;;;;10.27;7.80;;;15.90;99.90;;;;;;5070881;28;20051;-88
2022/06/01 08:33:54;;;;;;;8.18;6.43;;;15.80;99.90;;;;;;5070458;28;20464;-88
2022/06/01 08:36:20;;;;;;;7.35;6.15;;;15.80;99.90;;;;;;5053224;28;20047;-88
2022/06/01 08:38:46;;;;;;;7.45;5.50;;;15.90;99.90;;;;;;5048663;28;20048;-88
2022/06/01 08:41:14;;;;;;;6.90;5.60;;;16.10;99.90;;;;;;5033357;28;20060;-88
2022/06/01 08:43:46;;;;;;;7.53;5.32;;;16.40;99.90;;;;;;5033447;28;20048;-87
2022/06/01 08:46:13;;;;;;;6.78;5.40;;;16.70;99.90;;;;;;5050130;28;20048;-87
2022/06/01 08:48:44;;;;;;;8.98;5.25;;;16.80;99.90;;;;;;5032760;28;20052;-87
2022/06/01 08:51:11;;;;;;;6.65;3.53;;;17.10;99.90;;;;;;5066563;28;20053;-87
2022/06/01 08:53:38;;;;;;;6.22;3.38;;;17.20;99.90;;;;;;5033998;28;20044;-87
2022/06/01 08:56:10;;;;;;;5.20;3.45;;;17.20;99.90;;;;;;5032974;28;20072;-86
2022/06/01 08:59:03;;;;;;;5.03;3.60;;;17.20;99.90;;;;;;5034404;28;20040;-86
2022/06/01 09:01:42;;;;;;;9.15;3.60;;;17.20;99.90;;;;;;5034341;28;20079;-87
2022/06/01 09:04:28;;;;;;;5.82;4.05;;;17.30;99.90;;;;;;5032201;28;20067;-85
2022/06/01 09:07:16;;;;;;;4.93;3.03;;;17.30;99.90;;;;;;5033858;28;20114;-86
2022/06/01 09:09:47;;;;;;;5.82;3.70;;;17.30;99.90;;;;;;5041527;28;20040;-85
2022/06/01 09:12:14;;;;;;;5.47;3.95;;;17.10;99.90;;;;;;5035080;28;20093;-86
2022/06/01 09:14:44;;;;;;;4.88;3.60;;;17.00;99.90;;;;;;5050779;28;20051;-86
2022/06/01 09:17:10;;;;;;;4.75;3.45;;;17.10;99.90;;;;;;5049208;28;20079;-86
2022/06/01 09:22:38;;;;;;;5.93;3.13;;;17.10;99.90;;;;;;5050199;28;20055;-85
2022/06/01 09:25:06;;;;;;;6.70;3.40;;;17.10;99.90;;;;;;5049632;28;20055;-86
2022/06/01 09:27:38;;;;;;;5.35;3.50;;;17.10;99.90;;;;;;5034059;28;20048;-86
2022/06/01 09:30:20;;;;;;;5.88;3.13;;;17.00;99.90;;;;;;5053568;28;20047;-86
2022/06/01 09:33:12;;;;;;;6.15;3.58;;;16.80;99.90;;;;;;5053061;28;20044;-85
2022/06/01 09:35:41;;;;;;;6.22;3.55;;;16.70;99.90;;;;;;5053561;28;20468;-86
2022/06/01 09:38:34;;;;;;;7.00;3.80;;;16.70;99.90;;;;;;5052329;28;20055;-86
2022/06/01 09:41:04;;;;;;;7.47;3.30;;;16.80;99.90;;;;;;5053588;28;20046;-86
2022/06/01 09:43:29;;;;;;;7.88;3.70;;;16.90;99.90;;;;;;5069971;28;20063;-85
2022/06/01 09:45:56;;;;;;;6.18;4.07;;;16.80;99.90;;;;;;5053077;28;20323;-86
2022/06/01 09:48:32;;;;;;;5.05;3.90;;;16.70;99.90;;;;;;5068578;28;20035;-85
2022/06/01 09:51:16;;;;;;;5.20;2.70;;;16.60;99.90;;;;;;5053001;28;20086;-86
2022/06/01 09:53:46;;;;;;;4.43;2.78;;;16.70;99.90;;;;;;5068633;28;20040;-85
2022/06/01 09:56:28;;;;;;;3.25;2.60;;;16.50;99.90;;;;;;5069033;28;20443;-86
2022/06/01 10:07:28;;;;;;;4.78;2.47;;;16.90;99.90;;;;;;5047818;28;20052;-84
2022/06/01 10:09:56;;;;;;;4.82;2.58;;;16.80;99.90;;;;;;5048893;28;20055;-84
2022/06/01 10:12:40;;;;;;;3.78;2.50;;;16.60;99.90;;;;;;5051083;28;20028;-84
2022/06/01 10:15:20;;;;;;;5.63;2.75;;;16.40;99.90;;;;;;5033346;28;20113;-85
2022/06/01 10:17:51;;;;;;;3.72;2.70;;;16.20;99.90;;;;;;5049701;28;20067;-85
2022/06/01 10:20:26;;;;;;;3.15;2.10;;;16.10;99.90;;;;;;5031050;28;20461;-84
2022/06/01 10:23:04;;;;;;;2.83;1.80;;;16.10;99.90;;;;;;5032617;28;20135;-84
2022/06/01 10:25:38;;;;;;;2.85;2.15;;;16.00;99.90;;;;;;5049269;28;20084;-84
2022/06/01 10:28:09;;;;;;;2.63;1.95;;;15.90;99.90;;;;;;5031579;28;20569;-84
2022/06/01 10:30:39;;;;;;;3.10;1.90;;;15.80;99.90;;;;;;5049143;28;20048;-84
2022/06/01 10:33:19;;;;;;;3.17;2.00;;;15.70;99.90;;;;;;5031357;28;20482;-85
2022/06/01 10:35:50;;;;;;;2.97;1.55;;;15.70;99.90;;;;;;5032310;28;20067;-84
2022/06/01 10:38:21;;;;;;;2.10;1.05;;;15.60;99.90;;;;;;5036548;28;20040;-86
2022/06/01 10:40:59;;;;;;;2.97;1.60;;;15.70;99.90;;;;;;5053015;28;20115;-85
2022/06/01 10:43:31;;;;;;;3.65;1.40;;;15.90;99.90;;;;;;5052514;28;20559;-85
2022/06/01 10:46:04;;;;;;;2.88;1.17;;;16.20;99.90;;;;;;5068678;28;20040;-84
2022/06/01 10:48:40;;;;;;;3.10;1.45;;;16.70;99.90;;;;;;5068248;28;20395;-85
2022/06/01 10:51:10;;;;;;;1.70;1.30;;;17.20;99.90;;;;;;5068788;28;20059;-86
2022/06/01 10:53:45;;;;;;;2.33;1.13;;;17.40;99.90;;;;;;5052068;28;20043;-86
2022/06/01 10:56:12;;;;;;;1.50;1.00;;;17.40;99.90;;;;;;5051348;28;20048;-85
2022/06/01 10:58:38;;;;;;;3.10;1.10;;;17.30;99.90;;;;;;5052464;28;20130;-85
2022/06/01 11:01:18;;;;;;;2.70;0.90;;;17.20;99.90;;;;;;5051700;28;20522;-85
2022/06/01 11:03:59;;;;;;;1.02;0.90;;;17.30;99.90;;;;;;5067356;28;20060;-85
2022/06/01 11:06:37;;;;;;;3.00;1.10;;;17.40;99.90;;;;;;5070714;28;20130;-85
2022/06/01 11:09:31;;;;;;;1.65;0.90;;;17.50;99.90;;;;;;5054084;28;20047;-85
2022/06/01 11:12:28;;;;;;;2.03;0.90;;;17.30;99.90;;;;;;5056050;28;20048;-85
2022/06/01 11:15:23;;;;;;;1.20;0.70;;;17.20;99.90;;;;;;5055773;28;20480;-85
2022/06/01 11:17:51;;;;;;;2.28;1.35;;;17.00;99.90;;;;;;5070674;28;20145;-86
2022/06/01 11:20:40;;;;;;;2.25;0.98;;;17.00;99.90;;;;;;5055351;28;20048;-86
2022/06/01 11:23:17;;;;;;;1.70;1.00;;;16.70;99.90;;;;;;5071600;28;20059;-85
2022/06/01 11:26:00;;;;;;;1.83;0.85;;;16.60;99.90;;;;;;5057727;28;20052;-86
2022/06/01 11:28:47;;;;;;;2.05;1.15;;;16.50;99.90;;;;;;5066297;28;20432;-84
2022/06/01 11:31:19;;;;;;;2.28;1.23;;;16.30;99.90;;;;;;5052151;28;20053;-85
2022/06/01 11:34:01;;;;;;;2.22;1.30;;;16.20;99.90;;;;;;5035073;28;20041;-85
2022/06/01 11:36:26;;;;;;;2.35;1.05;;;16.10;99.90;;;;;;5052050;28;20041;-85
2022/06/01 11:39:01;;;;;;;2.47;1.50;;;15.90;99.90;;;;;;5040262;28;20044;-86
2022/06/01 11:41:34;;;;;;;2.97;1.48;;;15.70;99.90;;;;;;5037719;28;20101;-86
2022/06/01 11:44:08;;;;;;;2.83;1.63;;;15.60;99.90;;;;;;5035669;28;20094;-85
2022/06/01 11:46:39;;;;;;;4.32;1.58;;;15.60;99.90;;;;;;5035598;28;20047;-85
2022/06/01 11:49:12;;;;;;;2.30;1.40;;;15.60;99.90;;;;;;5034859;28;20087;-84
2022/06/01 11:51:38;;;;;;;2.75;1.60;;;15.80;99.90;;;;;;5034582;28;20525;-86
2022/06/01 11:54:10;;;;;;;2.38;1.20;;;16.00;99.90;;;;;;5051375;28;20143;-86
2022/06/01 11:56:43;;;;;;;2.58;1.25;;;16.20;99.90;;;;;;5035167;28;20036;-87
2022/06/01 11:59:44;;;;;;;2.70;1.40;;;16.40;99.90;;;;;;5034069;28;20044;-87
2022/06/01 12:02:40;;;;;;;3.10;1.10;;;16.60;99.90;;;;;;5036307;28;20131;-84
2022/06/01 12:05:12;;;;;;;2.33;1.25;;;16.80;99.90;;;;;;5056395;28;20044;-84
2022/06/01 12:07:56;;;;;;;6.47;1.10;;;16.90;99.90;;;;;;5051118;28;20113;-84
2022/06/01 12:10:28;;;;;;;2.20;1.05;;;17.00;99.90;;;;;;5069658;28;20167;-84
2022/06/01 12:12:55;;;;;;;3.25;1.08;;;16.90;99.90;;;;;;5050711;28;20055;-83
2022/06/01 12:15:32;;;;;;;1.55;0.98;;;16.80;99.90;;;;;;5034567;28;20056;-82
2022/06/01 12:18:12;;;;;;;2.28;0.90;;;16.70;99.90;;;;;;5050572;28;20036;-83
2022/06/01 12:20:37;;;;;;;2.30;0.95;;;16.70;99.90;;;;;;5050215;28;20123;-84
2022/06/01 12:28:56;;;;;;;1.90;1.00;;;17.20;99.90;;;;;;5050625;28;20389;-82
2022/06/01 12:31:27;;;;;;;2.13;1.25;;;17.40;99.90;;;;;;5033982;28;20068;-81
2022/06/01 12:34:02;;;;;;;2.33;1.30;;;17.70;99.90;;;;;;5032582;28;20041;-82
2022/06/01 12:36:32;;;;;;;1.95;1.10;;;17.90;99.90;;;;;;5051278;28;20109;-83
2022/06/01 12:38:58;;;;;;;2.22;0.98;;;18.20;99.90;;;;;;5033825;28;20044;-82
2022/06/01 12:41:27;;;;;;;1.50;1.00;;;18.20;99.90;;;;;;5050014;28;20464;-82
2022/06/01 12:43:57;;;;;;;2.45;1.20;;;18.10;99.90;;;;;;5050286;28;20403;-83
2022/06/01 12:46:30;;;;;;;4.40;1.25;;;18.00;99.90;;;;;;5050263;28;20044;-83
2022/06/01 12:49:23;;;;;;;1.65;0.93;;;17.80;99.90;;;;;;5049397;28;20492;-82
2022/06/01 12:51:51;;;;;;;3.15;1.10;;;17.70;99.90;;;;;;5050698;28;20044;-83
2022/06/01 12:54:34;;;;;;;2.40;1.42;;;17.60;99.90;;;;;;5033845;28;20135;-83
2022/06/01 12:57:00;;;;;;;3.88;1.40;;;17.60;99.90;;;;;;5049622;28;20087;-84
2022/06/01 12:59:31;;;;;;;2.85;1.25;;;17.70;99.90;;;;;;5033597;28;20051;-83
2022/06/01 13:02:00;;;;;;;3.08;1.35;;;17.70;99.90;;;;;;5049348;28;20472;-84
2022/06/01 13:04:27;;;;;;;2.67;1.40;;;17.70;99.90;;;;;;5032814;28;20052;-84
2022/06/01 13:06:54;;;;;;;4.88;1.80;;;17.80;99.90;;;;;;5050022;28;20037;-84
2022/06/01 13:09:24;;;;;;;4.07;2.03;;;17.80;99.90;;;;;;5032568;28;20625;-83
2022/06/01 13:12:06;;;;;;;4.35;1.73;;;17.70;99.90;;;;;;5051117;28;20056;-84
2022/06/01 13:14:33;;;;;;;2.53;1.30;;;17.40;99.90;;;;;;5033664;28;20106;-84
2022/06/01 13:17:12;;;;;;;2.70;1.10;;;17.20;99.90;;;;;;5049756;28;20207;-83
2022/06/01 13:19:39;;;;;;;3.05;0.98;;;16.80;99.90;;;;;;5049552;28;20371;-83
2022/06/01 13:22:22;;;;;;;3.90;0.80;;;16.50;99.90;;;;;;5033402;28;20040;-84
2022/06/01 13:24:55;;;;;;;1.92;0.98;;;16.10;99.90;;;;;;5049101;28;20044;-83
2022/06/01 13:27:21;;;;;;;3.40;1.00;;;15.80;99.90;;;;;;5033783;28;20049;-83